KMIB/MIB METAR and TAF weather

Enter ICAO airport designator
Station Type Date Time Source
KMIB METAR 2022/05/24 11:56 UTC NOAA

KMIB 241156Z 19005KT 10SM CLR 06/05 A3000 RMK AO2A SLP169 T00590014 10095 20037 52004 $


Station Type Date Time Source
KMIB Decoded METAR 2022/05/24 11:56 UTC NOAA

Minot Air Force Base, ND, United States (KMIB) 48-25N 101-21W
May 24, 2022 - 07:56 AM EDT / 2022.05.24 1156 UTC
Wind: from the S (190 degrees) at 6 MPH (5 KT):0
Visibility: 10 mile(s):0
Sky conditions: clear
Temperature: 42.6 F (5.9 C)
Dew Point: 34.5 F (1.4 C)
Relative Humidity: 72%
Pressure (altimeter): 30 in. Hg (1015 hPa)
Pressure tendency: 0.01 inches (0.4 hPa) higher than three hours ago
ob: KMIB 241156Z 19005KT 10SM CLR 06/05 A3000 RMK AO2A SLP169 T00590014 10095 20037 52004
cycle: 12

Station Type Date Time Source
KMIB TAF 2022/05/24 12:07 UTC NOAA

TAF
AMD KMIB 241200Z 2412/2515 18009KT 9999 FEW100 QNH3000INS
BECMG 2415/2416 VRB06KT 9999 FEW100 QNH3001INS TX20/2420Z TN07/2412Z

Example: see airport list